首页
METAR-TAF:

METAR-TAF

机场 :

比洛克西, 密西西比州, 美国

纬度: 30-25N, 经度: 088-55W, 海拔: 10米

当前天气观测

该预报发布于5分钟前的12:17 UTC
风速14节,风向北转东北,有时为21节阵风
温度 6°C
湿度 87%
气压 1028 hPa
能見度: 16.1公里
散云层高于1000英尺
散云层高于1500英尺
阴天层高于4800英尺

METAR: KBIX 111217Z AUTO 03014G21KT 10SM SCT010 SCT015 OVC048 06/04 A3035 RMK AO2 RAE12 SLP281

时间: 06:22 (12:22 UTC)

预报

该预报发布于2小时和22分钟前的10:00 UTC
预报有效从11日的 10点(UTC)到 12日的 16点(UTC)
风速15节,风向北转东北,有时为25节阵风
能見度: 9000
多云层高于4000英尺
小阵雨
成为
从 11日的 12点(UTC)到 11日的 13点(UTC)
风速15节,风向北转东北,有时为25节阵风
能见度10公里或以上
少量云层高于1300英尺
散云层高于3000英尺
多云层高于5000英尺
成为
从 11日的 22点(UTC)到 11日的 23点(UTC)
风速12节,风向北转东北
能见度10公里或以上
少量云层高于7500英尺
少量云层高于15000英尺
成为
从 12日的 04点(UTC)到 12日的 05点(UTC)
风速10节,风向东北
能见度10公里或以上
少量云层高于5000英尺
成为
从 12日的 15点(UTC)到 12日的 16点(UTC)
风速12节,风向东转东北
能见度10公里或以上
多云层高于1500英尺

TAF: KBIX 111000Z 1110/1216 02015G25KT 9000 -SHRA BKN040 QNH3014INS BECMG 1112/1113 03015G25KT 9999 NSW FEW013 SCT030 BKN050 QNH3033INS BECMG 1122/1123 02012KT 9999 FEW075 FEW150 510053 QNH3035INS BECMG 1204/1205 04010KT 9999 FEW050 WS020/08033KT QNH3040INS BECMG 1215/1216 07012KT 9999 BKN015 QNH3033INS TX12/1121Z TN07/1114Z

超过4000个机场的气象观测和天气预报(METAR&TAF报告)。

可查询的气象台以黄色和红色小点在地图上表示。

将鼠标移到小点上方,可查看气象台名称。

然后点击查看天气观测和预报。

如需切换地图:点击带黑十字的绿色按钮放大地图;点击带横线的绿色按钮缩小地图;或者点击绿色箭头查看邻近地区的地图。


METAR-TAF: